sensor_id;sensor_type;location;lat;lon;timestamp;temperature;humidity
14142;DHT22;7151;52.246;4.820;2024-02-23T00:00:09;10.60;90.80
14142;DHT22;7151;52.246;4.820;2024-02-23T00:02:37;10.60;90.80
14142;DHT22;7151;52.246;4.820;2024-02-23T00:05:03;10.60;90.70
14142;DHT22;7151;52.246;4.820;2024-02-23T00:07:32;10.60;90.80
14142;DHT22;7151;52.246;4.820;2024-02-23T00:12:47;10.60;91.00
14142;DHT22;7151;52.246;4.820;2024-02-23T00:15:13;10.60;90.70
14142;DHT22;7151;52.246;4.820;2024-02-23T00:17:38;10.70;90.70
14142;DHT22;7151;52.246;4.820;2024-02-23T00:20:05;10.70;90.60
14142;DHT22;7151;52.246;4.820;2024-02-23T00:22:33;10.70;90.60
14142;DHT22;7151;52.246;4.820;2024-02-23T00:24:59;10.70;90.60
14142;DHT22;7151;52.246;4.820;2024-02-23T00:27:25;10.70;90.60
14142;DHT22;7151;52.246;4.820;2024-02-23T00:29:50;10.70;90.50
14142;DHT22;7151;52.246;4.820;2024-02-23T00:32:16;10.70;90.50
14142;DHT22;7151;52.246;4.820;2024-02-23T00:34:41;10.60;90.50
14142;DHT22;7151;52.246;4.820;2024-02-23T00:37:07;10.70;90.40
14142;DHT22;7151;52.246;4.820;2024-02-23T00:39:33;10.70;90.40
14142;DHT22;7151;52.246;4.820;2024-02-23T00:41:59;10.70;90.30
14142;DHT22;7151;52.246;4.820;2024-02-23T00:44:24;10.70;90.30
14142;DHT22;7151;52.246;4.820;2024-02-23T00:46:50;10.70;90.30
14142;DHT22;7151;52.246;4.820;2024-02-23T00:49:15;10.70;90.30
14142;DHT22;7151;52.246;4.820;2024-02-23T00:51:43;10.70;90.30
14142;DHT22;7151;52.246;4.820;2024-02-23T00:54:08;10.70;90.20
14142;DHT22;7151;52.246;4.820;2024-02-23T00:56:34;10.70;90.30
14142;DHT22;7151;52.246;4.820;2024-02-23T00:59:00;10.70;90.30
14142;DHT22;7151;52.246;4.820;2024-02-23T01:01:26;10.70;90.20
14142;DHT22;7151;52.246;4.820;2024-02-23T01:03:53;10.70;90.20
14142;DHT22;7151;52.246;4.820;2024-02-23T01:06:22;10.70;90.20
14142;DHT22;7151;52.246;4.820;2024-02-23T01:08:47;10.80;90.20
14142;DHT22;7151;52.246;4.820;2024-02-23T01:11:13;10.80;90.20
14142;DHT22;7151;52.246;4.820;2024-02-23T01:13:38;10.70;90.10
14142;DHT22;7151;52.246;4.820;2024-02-23T01:16:04;10.80;90.10
14142;DHT22;7151;52.246;4.820;2024-02-23T01:18:30;10.80;90.10
14142;DHT22;7151;52.246;4.820;2024-02-23T01:20:59;10.80;90.00
14142;DHT22;7151;52.246;4.820;2024-02-23T01:23:24;10.70;89.90
14142;DHT22;7151;52.246;4.820;2024-02-23T01:25:50;10.80;89.90
14142;DHT22;7151;52.246;4.820;2024-02-23T01:28:15;10.70;89.90
14142;DHT22;7151;52.246;4.820;2024-02-23T01:30:41;10.70;89.90
14142;DHT22;7151;52.246;4.820;2024-02-23T01:33:07;10.80;89.80
14142;DHT22;7151;52.246;4.820;2024-02-23T01:35:32;10.70;89.60
14142;DHT22;7151;52.246;4.820;2024-02-23T01:37:58;10.70;89.60
14142;DHT22;7151;52.246;4.820;2024-02-23T01:40:23;10.70;89.70
14142;DHT22;7151;52.246;4.820;2024-02-23T01:43:03;10.70;89.70
14142;DHT22;7151;52.246;4.820;2024-02-23T01:45:29;10.60;89.60
14142;DHT22;7151;52.246;4.820;2024-02-23T01:47:56;10.60;89.60
14142;DHT22;7151;52.246;4.820;2024-02-23T01:50:22;10.70;89.60
14142;DHT22;7151;52.246;4.820;2024-02-23T01:52:49;10.70;89.60
14142;DHT22;7151;52.246;4.820;2024-02-23T01:55:21;10.70;89.40
14142;DHT22;7151;52.246;4.820;2024-02-23T01:57:47;10.70;89.40
14142;DHT22;7151;52.246;4.820;2024-02-23T02:00:16;10.70;89.30
14142;DHT22;7151;52.246;4.820;2024-02-23T02:02:43;10.70;88.80
14142;DHT22;7151;52.246;4.820;2024-02-23T02:05:09;10.70;89.00
14142;DHT22;7151;52.246;4.820;2024-02-23T02:07:35;10.70;88.90
14142;DHT22;7151;52.246;4.820;2024-02-23T02:10:01;10.70;89.00
14142;DHT22;7151;52.246;4.820;2024-02-23T02:12:29;10.70;89.10
14142;DHT22;7151;52.246;4.820;2024-02-23T02:14:54;10.70;89.10
14142;DHT22;7151;52.246;4.820;2024-02-23T02:17:21;10.60;89.00
14142;DHT22;7151;52.246;4.820;2024-02-23T02:19:48;10.60;89.00
14142;DHT22;7151;52.246;4.820;2024-02-23T02:22:13;10.70;89.00
14142;DHT22;7151;52.246;4.820;2024-02-23T02:24:39;10.60;89.10
14142;DHT22;7151;52.246;4.820;2024-02-23T02:27:08;10.60;89.90
14142;DHT22;7151;52.246;4.820;2024-02-23T02:29:35;10.50;89.30
14142;DHT22;7151;52.246;4.820;2024-02-23T02:32:01;10.50;89.40
14142;DHT22;7151;52.246;4.820;2024-02-23T02:34:27;10.50;90.00
14142;DHT22;7151;52.246;4.820;2024-02-23T02:36:54;10.50;89.50
14142;DHT22;7151;52.246;4.820;2024-02-23T02:39:20;10.50;89.60
14142;DHT22;7151;52.246;4.820;2024-02-23T02:41:47;10.50;89.60
14142;DHT22;7151;52.246;4.820;2024-02-23T02:44:13;10.50;89.60
14142;DHT22;7151;52.246;4.820;2024-02-23T02:46:39;10.40;89.60
14142;DHT22;7151;52.246;4.820;2024-02-23T02:49:05;10.50;89.60
14142;DHT22;7151;52.246;4.820;2024-02-23T02:51:31;10.40;90.00
14142;DHT22;7151;52.246;4.820;2024-02-23T02:53:56;10.40;89.40
14142;DHT22;7151;52.246;4.820;2024-02-23T02:56:22;10.40;89.40
14142;DHT22;7151;52.246;4.820;2024-02-23T02:58:48;10.40;89.50
14142;DHT22;7151;52.246;4.820;2024-02-23T03:01:13;10.40;89.40
14142;DHT22;7151;52.246;4.820;2024-02-23T03:03:39;10.50;89.50
14142;DHT22;7151;52.246;4.820;2024-02-23T03:06:05;10.40;89.40
14142;DHT22;7151;52.246;4.820;2024-02-23T03:08:31;10.40;89.50
14142;DHT22;7151;52.246;4.820;2024-02-23T03:10:57;10.40;89.40
14142;DHT22;7151;52.246;4.820;2024-02-23T03:13:22;10.40;89.40
14142;DHT22;7151;52.246;4.820;2024-02-23T03:15:48;10.40;89.60
14142;DHT22;7151;52.246;4.820;2024-02-23T03:18:13;10.40;89.70
14142;DHT22;7151;52.246;4.820;2024-02-23T03:20:41;10.40;89.80
14142;DHT22;7151;52.246;4.820;2024-02-23T03:23:07;10.40;89.90
14142;DHT22;7151;52.246;4.820;2024-02-23T03:25:33;10.40;89.90
14142;DHT22;7151;52.246;4.820;2024-02-23T03:27:59;10.40;89.90
14142;DHT22;7151;52.246;4.820;2024-02-23T03:30:25;10.40;89.90
14142;DHT22;7151;52.246;4.820;2024-02-23T03:32:51;10.40;89.70
14142;DHT22;7151;52.246;4.820;2024-02-23T03:35:25;10.40;89.70
14142;DHT22;7151;52.246;4.820;2024-02-23T03:37:51;10.40;89.70
14142;DHT22;7151;52.246;4.820;2024-02-23T03:40:17;10.40;90.10
14142;DHT22;7151;52.246;4.820;2024-02-23T03:42:44;10.40;89.50
14142;DHT22;7151;52.246;4.820;2024-02-23T03:45:10;10.40;89.60
14142;DHT22;7151;52.246;4.820;2024-02-23T03:47:35;10.30;90.00
14142;DHT22;7151;52.246;4.820;2024-02-23T03:50:01;10.30;89.70
14142;DHT22;7151;52.246;4.820;2024-02-23T03:52:27;10.30;89.50
14142;DHT22;7151;52.246;4.820;2024-02-23T03:54:52;10.30;89.70
14142;DHT22;7151;52.246;4.820;2024-02-23T03:57:20;10.20;89.60
14142;DHT22;7151;52.246;4.820;2024-02-23T03:59:52;10.20;89.80
14142;DHT22;7151;52.246;4.820;2024-02-23T04:02:19;10.20;89.70
14142;DHT22;7151;52.246;4.820;2024-02-23T04:04:47;10.10;89.70
14142;DHT22;7151;52.246;4.820;2024-02-23T04:07:13;10.30;89.90
14142;DHT22;7151;52.246;4.820;2024-02-23T04:09:39;10.10;89.80
14142;DHT22;7151;52.246;4.820;2024-02-23T04:12:05;10.10;89.80
14142;DHT22;7151;52.246;4.820;2024-02-23T04:14:33;10.00;89.80
14142;DHT22;7151;52.246;4.820;2024-02-23T04:17:04;10.10;90.00
14142;DHT22;7151;52.246;4.820;2024-02-23T04:19:30;10.00;90.00
14142;DHT22;7151;52.246;4.820;2024-02-23T04:21:56;10.00;89.90
14142;DHT22;7151;52.246;4.820;2024-02-23T04:24:21;9.90;90.30
14142;DHT22;7151;52.246;4.820;2024-02-23T04:26:47;9.90;90.00
14142;DHT22;7151;52.246;4.820;2024-02-23T04:29:13;9.90;90.00
14142;DHT22;7151;52.246;4.820;2024-02-23T04:31:38;9.90;90.00
14142;DHT22;7151;52.246;4.820;2024-02-23T04:34:04;9.90;90.00
14142;DHT22;7151;52.246;4.820;2024-02-23T04:36:29;9.90;90.00
14142;DHT22;7151;52.246;4.820;2024-02-23T04:38:55;9.90;90.10
14142;DHT22;7151;52.246;4.820;2024-02-23T04:41:21;9.80;90.00
14142;DHT22;7151;52.246;4.820;2024-02-23T04:43:47;9.80;90.00
14142;DHT22;7151;52.246;4.820;2024-02-23T04:46:13;9.80;90.00
14142;DHT22;7151;52.246;4.820;2024-02-23T04:48:39;9.80;90.00
14142;DHT22;7151;52.246;4.820;2024-02-23T04:51:04;9.70;90.00
14142;DHT22;7151;52.246;4.820;2024-02-23T04:53:31;9.70;90.10
14142;DHT22;7151;52.246;4.820;2024-02-23T04:55:57;9.80;90.10
14142;DHT22;7151;52.246;4.820;2024-02-23T04:58:22;9.70;90.10
14142;DHT22;7151;52.246;4.820;2024-02-23T05:00:48;9.70;90.10
14142;DHT22;7151;52.246;4.820;2024-02-23T05:03:14;9.70;90.10
14142;DHT22;7151;52.246;4.820;2024-02-23T05:05:41;9.70;90.20
14142;DHT22;7151;52.246;4.820;2024-02-23T05:08:06;9.70;90.20
14142;DHT22;7151;52.246;4.820;2024-02-23T05:10:32;9.70;90.30
14142;DHT22;7151;52.246;4.820;2024-02-23T05:12:58;9.70;90.30
14142;DHT22;7151;52.246;4.820;2024-02-23T05:15:23;9.70;90.40
14142;DHT22;7151;52.246;4.820;2024-02-23T05:17:49;9.70;90.40
14142;DHT22;7151;52.246;4.820;2024-02-23T05:20:15;9.70;90.40
14142;DHT22;7151;52.246;4.820;2024-02-23T05:22:40;9.70;90.40
14142;DHT22;7151;52.246;4.820;2024-02-23T05:25:07;9.70;90.50
14142;DHT22;7151;52.246;4.820;2024-02-23T05:27:32;9.70;90.50
14142;DHT22;7151;52.246;4.820;2024-02-23T05:29:58;9.70;90.40
14142;DHT22;7151;52.246;4.820;2024-02-23T05:32:24;9.70;90.40
14142;DHT22;7151;52.246;4.820;2024-02-23T05:34:50;9.80;90.50
14142;DHT22;7151;52.246;4.820;2024-02-23T05:37:21;9.80;90.50
14142;DHT22;7151;52.246;4.820;2024-02-23T05:39:46;9.80;90.50
14142;DHT22;7151;52.246;4.820;2024-02-23T05:42:12;9.80;90.40
14142;DHT22;7151;52.246;4.820;2024-02-23T05:44:38;9.80;90.40
14142;DHT22;7151;52.246;4.820;2024-02-23T05:47:05;9.80;90.40
14142;DHT22;7151;52.246;4.820;2024-02-23T05:49:30;9.80;90.40
14142;DHT22;7151;52.246;4.820;2024-02-23T05:51:56;9.90;90.40
14142;DHT22;7151;52.246;4.820;2024-02-23T05:54:21;9.70;90.70
14142;DHT22;7151;52.246;4.820;2024-02-23T05:56:47;9.80;90.40
14142;DHT22;7151;52.246;4.820;2024-02-23T05:59:13;9.80;90.40
14142;DHT22;7151;52.246;4.820;2024-02-23T06:01:38;9.80;90.40
14142;DHT22;7151;52.246;4.820;2024-02-23T06:04:04;9.90;90.40
14142;DHT22;7151;52.246;4.820;2024-02-23T06:06:30;9.80;90.40
14142;DHT22;7151;52.246;4.820;2024-02-23T06:08:56;9.80;90.50
14142;DHT22;7151;52.246;4.820;2024-02-23T06:11:22;9.80;90.60
14142;DHT22;7151;52.246;4.820;2024-02-23T06:13:47;9.70;90.50
14142;DHT22;7151;52.246;4.820;2024-02-23T06:16:13;9.80;90.60
14142;DHT22;7151;52.246;4.820;2024-02-23T06:18:39;9.80;90.60
14142;DHT22;7151;52.246;4.820;2024-02-23T06:21:25;9.80;90.60
14142;DHT22;7151;52.246;4.820;2024-02-23T06:23:51;9.80;90.60
14142;DHT22;7151;52.246;4.820;2024-02-23T06:26:17;9.80;90.60
14142;DHT22;7151;52.246;4.820;2024-02-23T06:28:42;9.80;90.50
14142;DHT22;7151;52.246;4.820;2024-02-23T06:31:09;9.70;90.50
14142;DHT22;7151;52.246;4.820;2024-02-23T06:33:35;9.80;90.60
14142;DHT22;7151;52.246;4.820;2024-02-23T06:36:00;9.80;90.60
14142;DHT22;7151;52.246;4.820;2024-02-23T06:38:27;9.80;90.50
14142;DHT22;7151;52.246;4.820;2024-02-23T06:40:52;9.80;90.50
14142;DHT22;7151;52.246;4.820;2024-02-23T06:43:18;9.80;90.50
14142;DHT22;7151;52.246;4.820;2024-02-23T06:45:44;9.70;90.50
14142;DHT22;7151;52.246;4.820;2024-02-23T06:48:10;9.70;90.40
14142;DHT22;7151;52.246;4.820;2024-02-23T06:50:36;9.70;90.40
14142;DHT22;7151;52.246;4.820;2024-02-23T06:53:04;9.60;90.40
14142;DHT22;7151;52.246;4.820;2024-02-23T06:55:30;9.60;90.30
14142;DHT22;7151;52.246;4.820;2024-02-23T06:57:56;9.80;90.30
14142;DHT22;7151;52.246;4.820;2024-02-23T07:00:22;9.60;90.60
14142;DHT22;7151;52.246;4.820;2024-02-23T07:02:47;9.60;90.30
14142;DHT22;7151;52.246;4.820;2024-02-23T07:05:13;9.60;90.10
14142;DHT22;7151;52.246;4.820;2024-02-23T07:07:40;9.60;90.20
14142;DHT22;7151;52.246;4.820;2024-02-23T07:10:06;9.50;90.10
14142;DHT22;7151;52.246;4.820;2024-02-23T07:12:32;9.60;90.30
14142;DHT22;7151;52.246;4.820;2024-02-23T07:14:58;9.60;90.20
14142;DHT22;7151;52.246;4.820;2024-02-23T07:17:24;9.60;90.30
14142;DHT22;7151;52.246;4.820;2024-02-23T07:19:50;9.60;90.20
14142;DHT22;7151;52.246;4.820;2024-02-23T07:22:17;9.70;90.10
14142;DHT22;7151;52.246;4.820;2024-02-23T07:24:48;9.50;90.50
14142;DHT22;7151;52.246;4.820;2024-02-23T07:27:14;9.60;90.30
14142;DHT22;7151;52.246;4.820;2024-02-23T07:29:40;9.60;90.30
14142;DHT22;7151;52.246;4.820;2024-02-23T07:32:06;9.50;90.00
14142;DHT22;7151;52.246;4.820;2024-02-23T07:34:32;9.60;90.20
14142;DHT22;7151;52.246;4.820;2024-02-23T07:36:57;9.60;90.20
14142;DHT22;7151;52.246;4.820;2024-02-23T07:39:23;9.60;90.20
14142;DHT22;7151;52.246;4.820;2024-02-23T07:41:48;9.60;90.30
14142;DHT22;7151;52.246;4.820;2024-02-23T07:44:14;9.60;90.30
14142;DHT22;7151;52.246;4.820;2024-02-23T07:46:40;9.60;90.30
14142;DHT22;7151;52.246;4.820;2024-02-23T07:49:07;9.50;90.20
14142;DHT22;7151;52.246;4.820;2024-02-23T07:51:33;9.70;90.30
14142;DHT22;7151;52.246;4.820;2024-02-23T07:53:58;9.60;90.10
14142;DHT22;7151;52.246;4.820;2024-02-23T07:56:24;9.60;90.20
14142;DHT22;7151;52.246;4.820;2024-02-23T07:58:49;9.60;90.20
14142;DHT22;7151;52.246;4.820;2024-02-23T08:01:15;9.70;90.30
14142;DHT22;7151;52.246;4.820;2024-02-23T08:03:41;9.60;90.20
14142;DHT22;7151;52.246;4.820;2024-02-23T08:06:07;9.50;90.20
14142;DHT22;7151;52.246;4.820;2024-02-23T08:08:32;9.50;90.20
14142;DHT22;7151;52.246;4.820;2024-02-23T08:11:01;9.60;90.40
14142;DHT22;7151;52.246;4.820;2024-02-23T08:13:27;9.50;90.40
14142;DHT22;7151;52.246;4.820;2024-02-23T08:15:52;9.50;90.50
14142;DHT22;7151;52.246;4.820;2024-02-23T08:18:18;9.60;90.50
14142;DHT22;7151;52.246;4.820;2024-02-23T08:20:44;9.50;90.50
14142;DHT22;7151;52.246;4.820;2024-02-23T08:23:09;9.50;90.50
14142;DHT22;7151;52.246;4.820;2024-02-23T08:25:36;9.50;90.50
14142;DHT22;7151;52.246;4.820;2024-02-23T08:28:02;9.40;90.50
14142;DHT22;7151;52.246;4.820;2024-02-23T08:30:28;9.40;90.60
14142;DHT22;7151;52.246;4.820;2024-02-23T08:32:53;9.30;90.60
14142;DHT22;7151;52.246;4.820;2024-02-23T08:35:20;9.30;90.70
14142;DHT22;7151;52.246;4.820;2024-02-23T08:37:45;9.30;90.70
14142;DHT22;7151;52.246;4.820;2024-02-23T08:40:11;9.30;90.80
14142;DHT22;7151;52.246;4.820;2024-02-23T08:42:37;9.30;90.80
14142;DHT22;7151;52.246;4.820;2024-02-23T08:45:03;9.10;90.90
14142;DHT22;7151;52.246;4.820;2024-02-23T08:47:29;9.30;90.90
14142;DHT22;7151;52.246;4.820;2024-02-23T08:49:59;9.30;91.00
14142;DHT22;7151;52.246;4.820;2024-02-23T08:52:25;9.20;91.10
14142;DHT22;7151;52.246;4.820;2024-02-23T08:54:51;9.30;91.20
14142;DHT22;7151;52.246;4.820;2024-02-23T08:57:17;9.20;91.10
14142;DHT22;7151;52.246;4.820;2024-02-23T08:59:45;9.30;91.10
14142;DHT22;7151;52.246;4.820;2024-02-23T09:02:11;9.40;91.10
14142;DHT22;7151;52.246;4.820;2024-02-23T09:04:37;9.20;91.10
14142;DHT22;7151;52.246;4.820;2024-02-23T09:07:02;9.40;91.20
14142;DHT22;7151;52.246;4.820;2024-02-23T09:09:28;9.20;91.10
14142;DHT22;7151;52.246;4.820;2024-02-23T09:11:54;9.20;91.20
14142;DHT22;7151;52.246;4.820;2024-02-23T09:14:22;9.20;91.30
14142;DHT22;7151;52.246;4.820;2024-02-23T09:16:48;9.20;91.30
14142;DHT22;7151;52.246;4.820;2024-02-23T09:19:19;9.30;91.30
14142;DHT22;7151;52.246;4.820;2024-02-23T09:21:46;9.20;91.30
14142;DHT22;7151;52.246;4.820;2024-02-23T09:24:12;9.10;91.40
14142;DHT22;7151;52.246;4.820;2024-02-23T09:26:38;9.20;91.50
14142;DHT22;7151;52.246;4.820;2024-02-23T09:29:04;9.20;91.60
14142;DHT22;7151;52.246;4.820;2024-02-23T09:31:30;9.20;91.60
14142;DHT22;7151;52.246;4.820;2024-02-23T09:33:57;9.20;91.50
14142;DHT22;7151;52.246;4.820;2024-02-23T09:36:23;9.20;91.70
14142;DHT22;7151;52.246;4.820;2024-02-23T09:38:49;9.10;91.70
14142;DHT22;7151;52.246;4.820;2024-02-23T09:41:20;9.20;91.80
14142;DHT22;7151;52.246;4.820;2024-02-23T09:43:47;9.30;91.70
14142;DHT22;7151;52.246;4.820;2024-02-23T09:46:13;9.30;91.80
14142;DHT22;7151;52.246;4.820;2024-02-23T09:48:42;9.30;91.70
14142;DHT22;7151;52.246;4.820;2024-02-23T09:51:10;9.40;91.80
14142;DHT22;7151;52.246;4.820;2024-02-23T09:53:38;9.30;91.70
14142;DHT22;7151;52.246;4.820;2024-02-23T09:56:04;9.40;91.60
14142;DHT22;7151;52.246;4.820;2024-02-23T09:58:35;9.40;91.70
14142;DHT22;7151;52.246;4.820;2024-02-23T10:01:04;9.50;91.70
14142;DHT22;7151;52.246;4.820;2024-02-23T10:03:30;9.50;91.80
14142;DHT22;7151;52.246;4.820;2024-02-23T10:05:59;9.50;91.80
14142;DHT22;7151;52.246;4.820;2024-02-23T10:08:29;9.60;91.80
14142;DHT22;7151;52.246;4.820;2024-02-23T10:10:56;9.60;91.80
14142;DHT22;7151;52.246;4.820;2024-02-23T10:13:25;9.60;91.80
14142;DHT22;7151;52.246;4.820;2024-02-23T10:15:51;9.60;91.80
14142;DHT22;7151;52.246;4.820;2024-02-23T10:18:17;9.70;91.80
14142;DHT22;7151;52.246;4.820;2024-02-23T10:20:43;9.70;91.80
14142;DHT22;7151;52.246;4.820;2024-02-23T10:23:12;9.60;91.80
14142;DHT22;7151;52.246;4.820;2024-02-23T10:25:38;9.80;91.80
14142;DHT22;7151;52.246;4.820;2024-02-23T10:28:05;9.70;91.70
14142;DHT22;7151;52.246;4.820;2024-02-23T10:30:31;9.80;91.80
14142;DHT22;7151;52.246;4.820;2024-02-23T10:32:58;9.90;91.80
14142;DHT22;7151;52.246;4.820;2024-02-23T10:35:24;10.00;91.80
14142;DHT22;7151;52.246;4.820;2024-02-23T10:37:51;9.90;91.80
14142;DHT22;7151;52.246;4.820;2024-02-23T10:40:19;9.90;91.70
14142;DHT22;7151;52.246;4.820;2024-02-23T10:42:46;10.00;91.80
14142;DHT22;7151;52.246;4.820;2024-02-23T10:45:18;10.10;91.80
14142;DHT22;7151;52.246;4.820;2024-02-23T10:47:44;10.00;91.80
14142;DHT22;7151;52.246;4.820;2024-02-23T10:50:10;10.10;91.70
14142;DHT22;7151;52.246;4.820;2024-02-23T10:52:41;10.10;91.70
14142;DHT22;7151;52.246;4.820;2024-02-23T10:55:08;10.20;91.70
14142;DHT22;7151;52.246;4.820;2024-02-23T10:57:35;10.20;91.70
14142;DHT22;7151;52.246;4.820;2024-02-23T11:00:02;10.20;91.50
14142;DHT22;7151;52.246;4.820;2024-02-23T11:02:32;10.30;91.60
14142;DHT22;7151;52.246;4.820;2024-02-23T11:05:01;10.30;91.50
14142;DHT22;7151;52.246;4.820;2024-02-23T11:07:30;10.30;91.50
14142;DHT22;7151;52.246;4.820;2024-02-23T11:09:59;10.40;91.60
14142;DHT22;7151;52.246;4.820;2024-02-23T11:12:26;10.30;91.50
14142;DHT22;7151;52.246;4.820;2024-02-23T11:14:59;10.40;91.50
14142;DHT22;7151;52.246;4.820;2024-02-23T11:17:32;10.50;91.60
14142;DHT22;7151;52.246;4.820;2024-02-23T11:19:58;10.50;91.50
14142;DHT22;7151;52.246;4.820;2024-02-23T11:22:30;10.50;91.50
14142;DHT22;7151;52.246;4.820;2024-02-23T11:25:07;10.60;91.50
14142;DHT22;7151;52.246;4.820;2024-02-23T11:27:37;10.60;91.50
14142;DHT22;7151;52.246;4.820;2024-02-23T11:30:07;10.60;91.40
14142;DHT22;7151;52.246;4.820;2024-02-23T11:32:38;10.70;91.40
14142;DHT22;7151;52.246;4.820;2024-02-23T11:35:08;10.70;91.40
14142;DHT22;7151;52.246;4.820;2024-02-23T11:37:52;10.70;91.30
14142;DHT22;7151;52.246;4.820;2024-02-23T11:40:25;10.70;91.30
14142;DHT22;7151;52.246;4.820;2024-02-23T11:42:51;10.80;91.30
14142;DHT22;7151;52.246;4.820;2024-02-23T11:45:17;10.80;91.40
14142;DHT22;7151;52.246;4.820;2024-02-23T11:47:42;10.80;91.40
14142;DHT22;7151;52.246;4.820;2024-02-23T11:50:09;10.80;91.30
14142;DHT22;7151;52.246;4.820;2024-02-23T11:52:37;10.90;91.10
14142;DHT22;7151;52.246;4.820;2024-02-23T11:55:03;10.90;91.10
14142;DHT22;7151;52.246;4.820;2024-02-23T11:57:34;10.90;91.00
14142;DHT22;7151;52.246;4.820;2024-02-23T12:00:03;10.90;91.00
14142;DHT22;7151;52.246;4.820;2024-02-23T12:02:29;10.80;91.00
14142;DHT22;7151;52.246;4.820;2024-02-23T12:04:55;11.00;91.10
14142;DHT22;7151;52.246;4.820;2024-02-23T12:07:21;11.00;91.10
14142;DHT22;7151;52.246;4.820;2024-02-23T12:09:47;11.00;91.10
14142;DHT22;7151;52.246;4.820;2024-02-23T12:12:13;11.10;91.00
14142;DHT22;7151;52.246;4.820;2024-02-23T12:14:40;11.10;91.20
14142;DHT22;7151;52.246;4.820;2024-02-23T12:17:08;11.20;91.00
14142;DHT22;7151;52.246;4.820;2024-02-23T12:19:38;11.10;90.90
14142;DHT22;7151;52.246;4.820;2024-02-23T12:22:05;11.20;90.90
14142;DHT22;7151;52.246;4.820;2024-02-23T12:24:30;11.20;90.90
14142;DHT22;7151;52.246;4.820;2024-02-23T12:26:56;11.20;90.80
14142;DHT22;7151;52.246;4.820;2024-02-23T12:29:23;11.20;90.80
14142;DHT22;7151;52.246;4.820;2024-02-23T12:31:51;11.20;90.80
14142;DHT22;7151;52.246;4.820;2024-02-23T12:34:27;11.30;90.80
14142;DHT22;7151;52.246;4.820;2024-02-23T12:36:53;11.20;90.60
14142;DHT22;7151;52.246;4.820;2024-02-23T12:39:18;11.30;90.60
14142;DHT22;7151;52.246;4.820;2024-02-23T12:41:44;11.30;90.60
14142;DHT22;7151;52.246;4.820;2024-02-23T12:44:10;11.30;90.40
14142;DHT22;7151;52.246;4.820;2024-02-23T12:46:36;11.30;90.40
14142;DHT22;7151;52.246;4.820;2024-02-23T12:49:02;11.40;90.40
14142;DHT22;7151;52.246;4.820;2024-02-23T12:51:27;11.40;90.50
14142;DHT22;7151;52.246;4.820;2024-02-23T12:53:53;11.40;90.40
14142;DHT22;7151;52.246;4.820;2024-02-23T12:56:19;11.40;90.40
14142;DHT22;7151;52.246;4.820;2024-02-23T12:58:45;11.40;90.20
14142;DHT22;7151;52.246;4.820;2024-02-23T13:01:12;11.50;90.40
14142;DHT22;7151;52.246;4.820;2024-02-23T13:03:38;11.50;90.50
14142;DHT22;7151;52.246;4.820;2024-02-23T13:06:06;11.60;90.40
14142;DHT22;7151;52.246;4.820;2024-02-23T13:08:32;11.60;90.40
14142;DHT22;7151;52.246;4.820;2024-02-23T13:10:58;11.60;90.70
14142;DHT22;7151;52.246;4.820;2024-02-23T13:13:24;11.70;90.10
14142;DHT22;7151;52.246;4.820;2024-02-23T13:15:51;11.80;90.20
14142;DHT22;7151;52.246;4.820;2024-02-23T13:18:17;11.80;90.30
14142;DHT22;7151;52.246;4.820;2024-02-23T13:20:44;11.90;90.30
14142;DHT22;7151;52.246;4.820;2024-02-23T13:23:11;12.00;90.30
14142;DHT22;7151;52.246;4.820;2024-02-23T13:25:38;12.00;90.30
14142;DHT22;7151;52.246;4.820;2024-02-23T13:28:04;12.10;90.20
14142;DHT22;7151;52.246;4.820;2024-02-23T13:30:31;12.10;90.10
14142;DHT22;7151;52.246;4.820;2024-02-23T13:32:57;12.20;90.00
14142;DHT22;7151;52.246;4.820;2024-02-23T13:35:23;12.20;89.40
14142;DHT22;7151;52.246;4.820;2024-02-23T13:37:48;12.20;89.70
14142;DHT22;7151;52.246;4.820;2024-02-23T13:40:14;12.10;89.70
14142;DHT22;7151;52.246;4.820;2024-02-23T13:42:40;12.20;89.70
14142;DHT22;7151;52.246;4.820;2024-02-23T13:45:06;12.20;89.40
14142;DHT22;7151;52.246;4.820;2024-02-23T13:47:32;12.20;89.40
14142;DHT22;7151;52.246;4.820;2024-02-23T13:49:58;12.20;89.30
14142;DHT22;7151;52.246;4.820;2024-02-23T13:52:24;12.40;89.10
14142;DHT22;7151;52.246;4.820;2024-02-23T13:54:49;12.20;88.80
14142;DHT22;7151;52.246;4.820;2024-02-23T13:57:15;12.30;88.70
14142;DHT22;7151;52.246;4.820;2024-02-23T13:59:40;12.20;88.50
14142;DHT22;7151;52.246;4.820;2024-02-23T14:02:06;12.20;88.50
14142;DHT22;7151;52.246;4.820;2024-02-23T14:04:32;12.20;88.40
14142;DHT22;7151;52.246;4.820;2024-02-23T14:06:58;12.10;88.20
14142;DHT22;7151;52.246;4.820;2024-02-23T14:09:23;12.10;87.60
14142;DHT22;7151;52.246;4.820;2024-02-23T14:11:53;12.00;87.60
14142;DHT22;7151;52.246;4.820;2024-02-23T14:14:19;12.10;87.90
14142;DHT22;7151;52.246;4.820;2024-02-23T14:16:45;12.10;87.90
14142;DHT22;7151;52.246;4.820;2024-02-23T14:19:11;12.10;87.90
14142;DHT22;7151;52.246;4.820;2024-02-23T14:21:37;12.20;88.10
14142;DHT22;7151;52.246;4.820;2024-02-23T14:24:03;12.10;88.70
14142;DHT22;7151;52.246;4.820;2024-02-23T14:26:29;12.10;87.90
14142;DHT22;7151;52.246;4.820;2024-02-23T14:28:55;12.10;87.90
14142;DHT22;7151;52.246;4.820;2024-02-23T14:31:21;12.10;87.90
14142;DHT22;7151;52.246;4.820;2024-02-23T14:33:46;12.10;87.60
14142;DHT22;7151;52.246;4.820;2024-02-23T14:36:16;12.10;87.70
14142;DHT22;7151;52.246;4.820;2024-02-23T14:38:42;12.10;87.30
14142;DHT22;7151;52.246;4.820;2024-02-23T14:41:08;12.00;87.90
14142;DHT22;7151;52.246;4.820;2024-02-23T14:43:35;12.10;87.50
14142;DHT22;7151;52.246;4.820;2024-02-23T14:46:02;12.10;87.30
14142;DHT22;7151;52.246;4.820;2024-02-23T14:48:28;12.10;87.10
14142;DHT22;7151;52.246;4.820;2024-02-23T14:50:53;12.10;87.30
14142;DHT22;7151;52.246;4.820;2024-02-23T14:53:21;12.10;87.10
14142;DHT22;7151;52.246;4.820;2024-02-23T14:55:47;12.10;87.20
14142;DHT22;7151;52.246;4.820;2024-02-23T14:58:14;12.10;86.80
14142;DHT22;7151;52.246;4.820;2024-02-23T15:00:39;12.00;86.80
14142;DHT22;7151;52.246;4.820;2024-02-23T15:03:05;12.00;86.80
14142;DHT22;7151;52.246;4.820;2024-02-23T15:05:31;12.10;87.10
14142;DHT22;7151;52.246;4.820;2024-02-23T15:07:56;12.00;86.90
14142;DHT22;7151;52.246;4.820;2024-02-23T15:10:22;12.10;87.00
14142;DHT22;7151;52.246;4.820;2024-02-23T15:12:48;12.10;86.90
14142;DHT22;7151;52.246;4.820;2024-02-23T15:15:13;11.90;86.50
14142;DHT22;7151;52.246;4.820;2024-02-23T15:17:39;11.90;86.50
14142;DHT22;7151;52.246;4.820;2024-02-23T15:20:08;12.00;86.60
14142;DHT22;7151;52.246;4.820;2024-02-23T15:22:34;12.00;86.50
14142;DHT22;7151;52.246;4.820;2024-02-23T15:25:00;12.10;86.70
14142;DHT22;7151;52.246;4.820;2024-02-23T15:27:25;12.00;86.70
14142;DHT22;7151;52.246;4.820;2024-02-23T15:29:51;12.00;86.70
14142;DHT22;7151;52.246;4.820;2024-02-23T15:32:17;12.00;86.70
14142;DHT22;7151;52.246;4.820;2024-02-23T15:34:43;12.10;86.80
14142;DHT22;7151;52.246;4.820;2024-02-23T15:37:09;12.10;86.70
14142;DHT22;7151;52.246;4.820;2024-02-23T15:39:35;12.10;86.70
14142;DHT22;7151;52.246;4.820;2024-02-23T15:42:01;12.00;86.60
14142;DHT22;7151;52.246;4.820;2024-02-23T15:44:28;12.00;86.50
14142;DHT22;7151;52.246;4.820;2024-02-23T15:46:53;12.10;86.70
14142;DHT22;7151;52.246;4.820;2024-02-23T15:49:22;11.90;86.50